sensor_id;sensor_type;location;lat;lon;timestamp;pressure;altitude;pressure_sealevel;temperature;humidity
20793;BME280;10556;-33.662;151.094;2023-11-21T00:04:26;99532.88;;;22.56;100.00
20793;BME280;10556;-33.662;151.094;2023-11-21T00:09:30;99528.28;;;22.68;100.00
20793;BME280;10556;-33.662;151.094;2023-11-21T00:14:33;99523.09;;;22.85;100.00
20793;BME280;10556;-33.662;151.094;2023-11-21T00:19:35;99516.84;;;22.96;100.00
20793;BME280;10556;-33.662;151.094;2023-11-21T00:24:40;99511.47;;;22.97;100.00
20793;BME280;10556;-33.662;151.094;2023-11-21T00:29:42;99509.88;;;22.96;100.00
20793;BME280;10556;-33.662;151.094;2023-11-21T00:34:45;99506.28;;;22.97;100.00
20793;BME280;10556;-33.662;151.094;2023-11-21T00:39:49;99511.59;;;23.14;100.00
20793;BME280;10556;-33.662;151.094;2023-11-21T00:44:52;99497.84;;;23.21;100.00
20793;BME280;10556;-33.662;151.094;2023-11-21T00:49:54;99498.50;;;23.23;100.00
20793;BME280;10556;-33.662;151.094;2023-11-21T00:54:58;99492.56;;;23.31;100.00
20793;BME280;10556;-33.662;151.094;2023-11-21T01:00:01;99493.09;;;23.42;100.00
20793;BME280;10556;-33.662;151.094;2023-11-21T01:05:04;99484.84;;;23.47;100.00
20793;BME280;10556;-33.662;151.094;2023-11-21T01:10:08;99483.22;;;23.46;100.00
20793;BME280;10556;-33.662;151.094;2023-11-21T01:15:11;99478.19;;;23.44;100.00
20793;BME280;10556;-33.662;151.094;2023-11-21T01:20:13;99476.00;;;23.40;100.00
20793;BME280;10556;-33.662;151.094;2023-11-21T01:25:18;99478.09;;;23.36;100.00
20793;BME280;10556;-33.662;151.094;2023-11-21T01:30:20;99475.50;;;23.36;100.00
20793;BME280;10556;-33.662;151.094;2023-11-21T01:35:23;99473.25;;;23.41;100.00
20793;BME280;10556;-33.662;151.094;2023-11-21T01:40:28;99465.53;;;23.50;100.00
20793;BME280;10556;-33.662;151.094;2023-11-21T01:45:30;99459.53;;;23.57;100.00
20793;BME280;10556;-33.662;151.094;2023-11-21T01:50:33;99455.50;;;23.63;100.00
20793;BME280;10556;-33.662;151.094;2023-11-21T01:55:37;99450.63;;;23.76;100.00
20793;BME280;10556;-33.662;151.094;2023-11-21T02:00:40;99451.81;;;23.89;100.00
20793;BME280;10556;-33.662;151.094;2023-11-21T02:05:42;99449.88;;;24.00;100.00
20793;BME280;10556;-33.662;151.094;2023-11-21T02:15:48;99454.63;;;24.04;100.00
20793;BME280;10556;-33.662;151.094;2023-11-21T02:20:50;99453.50;;;24.07;100.00
20793;BME280;10556;-33.662;151.094;2023-11-21T02:25:54;99461.47;;;24.13;100.00
20793;BME280;10556;-33.662;151.094;2023-11-21T02:30:57;99447.03;;;24.27;100.00
20793;BME280;10556;-33.662;151.094;2023-11-21T02:35:59;99432.53;;;24.32;100.00
20793;BME280;10556;-33.662;151.094;2023-11-21T02:41:04;99438.91;;;24.38;100.00
20793;BME280;10556;-33.662;151.094;2023-11-21T02:46:06;99428.97;;;24.42;100.00
20793;BME280;10556;-33.662;151.094;2023-11-21T02:51:10;99442.66;;;24.44;100.00
20793;BME280;10556;-33.662;151.094;2023-11-21T02:56:14;99437.91;;;24.47;100.00
20793;BME280;10556;-33.662;151.094;2023-11-21T03:01:17;99432.88;;;24.54;100.00
20793;BME280;10556;-33.662;151.094;2023-11-21T03:06:20;99430.94;;;24.64;100.00
20793;BME280;10556;-33.662;151.094;2023-11-21T03:11:24;99424.56;;;24.74;100.00
20793;BME280;10556;-33.662;151.094;2023-11-21T03:16:26;99420.44;;;25.04;100.00
20793;BME280;10556;-33.662;151.094;2023-11-21T03:26:53;99411.19;;;25.41;100.00
20793;BME280;10556;-33.662;151.094;2023-11-21T03:31:56;99407.91;;;25.55;100.00
20793;BME280;10556;-33.662;151.094;2023-11-21T03:36:58;99402.19;;;25.82;100.00
20793;BME280;10556;-33.662;151.094;2023-11-21T03:42:03;99394.94;;;25.92;100.00
20793;BME280;10556;-33.662;151.094;2023-11-21T03:47:05;99390.31;;;26.02;100.00
20793;BME280;10556;-33.662;151.094;2023-11-21T03:52:08;99385.66;;;26.13;100.00
20793;BME280;10556;-33.662;151.094;2023-11-21T03:57:12;99376.00;;;26.21;100.00
20793;BME280;10556;-33.662;151.094;2023-11-21T04:02:14;99353.34;;;26.14;100.00
20793;BME280;10556;-33.662;151.094;2023-11-21T04:07:17;99346.28;;;26.14;100.00
20793;BME280;10556;-33.662;151.094;2023-11-21T04:12:21;99340.84;;;26.24;100.00
20793;BME280;10556;-33.662;151.094;2023-11-21T04:17:24;99325.03;;;26.40;100.00
20793;BME280;10556;-33.662;151.094;2023-11-21T04:22:26;99320.09;;;26.60;100.00
20793;BME280;10556;-33.662;151.094;2023-11-21T04:27:30;99325.13;;;26.61;100.00
20793;BME280;10556;-33.662;151.094;2023-11-21T04:32:33;99317.19;;;26.69;100.00
20793;BME280;10556;-33.662;151.094;2023-11-21T04:37:35;99303.84;;;26.79;100.00
20793;BME280;10556;-33.662;151.094;2023-11-21T04:42:40;99308.03;;;26.88;100.00
20793;BME280;10556;-33.662;151.094;2023-11-21T04:47:42;99304.25;;;26.91;100.00
20793;BME280;10556;-33.662;151.094;2023-11-21T04:52:45;99295.28;;;26.85;100.00
20793;BME280;10556;-33.662;151.094;2023-11-21T04:57:49;99296.09;;;26.85;100.00
20793;BME280;10556;-33.662;151.094;2023-11-21T05:02:52;99298.38;;;26.88;100.00
20793;BME280;10556;-33.662;151.094;2023-11-21T05:07:54;99286.94;;;26.89;100.00
20793;BME280;10556;-33.662;151.094;2023-11-21T05:12:58;99289.97;;;26.93;100.00
20793;BME280;10556;-33.662;151.094;2023-11-21T05:18:01;99283.03;;;27.00;100.00
20793;BME280;10556;-33.662;151.094;2023-11-21T05:23:03;99278.03;;;27.05;100.00
20793;BME280;10556;-33.662;151.094;2023-11-21T05:28:07;99260.44;;;27.14;100.00
20793;BME280;10556;-33.662;151.094;2023-11-21T05:33:13;99258.25;;;27.17;100.00
20793;BME280;10556;-33.662;151.094;2023-11-21T05:38:15;99237.75;;;27.21;100.00
20793;BME280;10556;-33.662;151.094;2023-11-21T05:43:20;99249.47;;;27.25;100.00
20793;BME280;10556;-33.662;151.094;2023-11-21T05:48:22;99251.97;;;27.12;100.00
20793;BME280;10556;-33.662;151.094;2023-11-21T05:53:25;99236.03;;;26.92;100.00
20793;BME280;10556;-33.662;151.094;2023-11-21T05:58:29;99232.00;;;26.75;100.00
20793;BME280;10556;-33.662;151.094;2023-11-21T06:03:32;99233.53;;;26.55;100.00
20793;BME280;10556;-33.662;151.094;2023-11-21T06:08:34;99228.31;;;26.40;100.00
20793;BME280;10556;-33.662;151.094;2023-11-21T06:13:38;99220.09;;;26.28;100.00
20793;BME280;10556;-33.662;151.094;2023-11-21T06:18:41;99226.22;;;26.21;100.00
20793;BME280;10556;-33.662;151.094;2023-11-21T06:23:43;99234.03;;;26.06;100.00
20793;BME280;10556;-33.662;151.094;2023-11-21T06:28:47;99226.63;;;25.95;100.00
20793;BME280;10556;-33.662;151.094;2023-11-21T06:33:50;99228.41;;;25.80;100.00
20793;BME280;10556;-33.662;151.094;2023-11-21T06:38:52;99224.44;;;25.69;100.00
20793;BME280;10556;-33.662;151.094;2023-11-21T06:43:57;99232.66;;;25.58;100.00
20793;BME280;10556;-33.662;151.094;2023-11-21T06:48:59;99242.03;;;25.44;100.00
20793;BME280;10556;-33.662;151.094;2023-11-21T06:54:01;99242.63;;;25.32;100.00
20793;BME280;10556;-33.662;151.094;2023-11-21T06:59:06;99243.06;;;25.12;100.00
20793;BME280;10556;-33.662;151.094;2023-11-21T07:04:08;99252.47;;;24.91;100.00
20793;BME280;10556;-33.662;151.094;2023-11-21T07:09:11;99274.66;;;24.79;100.00
20793;BME280;10556;-33.662;151.094;2023-11-21T07:14:15;99279.41;;;24.67;100.00
20793;BME280;10556;-33.662;151.094;2023-11-21T07:19:17;99289.72;;;24.60;100.00
20793;BME280;10556;-33.662;151.094;2023-11-21T07:24:20;99316.25;;;24.56;100.00
20793;BME280;10556;-33.662;151.094;2023-11-21T07:29:25;99329.81;;;24.43;100.00
20793;BME280;10556;-33.662;151.094;2023-11-21T07:34:27;99340.41;;;24.33;100.00
20793;BME280;10556;-33.662;151.094;2023-11-21T07:39:29;99363.50;;;24.12;100.00
20793;BME280;10556;-33.662;151.094;2023-11-21T07:44:34;99378.44;;;23.94;100.00
20793;BME280;10556;-33.662;151.094;2023-11-21T07:49:36;99388.69;;;23.87;100.00
20793;BME280;10556;-33.662;151.094;2023-11-21T07:54:38;99392.75;;;23.82;100.00
20793;BME280;10556;-33.662;151.094;2023-11-21T07:59:43;99406.41;;;23.76;100.00
20793;BME280;10556;-33.662;151.094;2023-11-21T08:04:45;99424.44;;;23.69;100.00
20793;BME280;10556;-33.662;151.094;2023-11-21T08:09:48;99429.94;;;23.58;100.00
20793;BME280;10556;-33.662;151.094;2023-11-21T08:14:52;99438.00;;;23.47;100.00
20793;BME280;10556;-33.662;151.094;2023-11-21T08:19:54;99444.13;;;23.38;100.00
20793;BME280;10556;-33.662;151.094;2023-11-21T08:24:57;99463.94;;;23.31;100.00
20793;BME280;10556;-33.662;151.094;2023-11-21T08:30:02;99456.41;;;23.20;100.00
20793;BME280;10556;-33.662;151.094;2023-11-21T08:35:05;99466.09;;;23.10;100.00
20793;BME280;10556;-33.662;151.094;2023-11-21T08:40:08;99477.41;;;23.00;100.00
20793;BME280;10556;-33.662;151.094;2023-11-21T08:45:13;99472.16;;;22.92;100.00
20793;BME280;10556;-33.662;151.094;2023-11-21T08:50:15;99473.88;;;22.84;100.00
20793;BME280;10556;-33.662;151.094;2023-11-21T08:55:18;99479.97;;;22.75;100.00
20793;BME280;10556;-33.662;151.094;2023-11-21T09:00:22;99495.63;;;22.65;100.00
20793;BME280;10556;-33.662;151.094;2023-11-21T09:05:25;99508.03;;;22.53;100.00
20793;BME280;10556;-33.662;151.094;2023-11-21T09:10:27;99510.41;;;22.47;100.00
20793;BME280;10556;-33.662;151.094;2023-11-21T09:15:32;99510.69;;;22.44;100.00
20793;BME280;10556;-33.662;151.094;2023-11-21T09:20:34;99520.84;;;22.37;100.00
20793;BME280;10556;-33.662;151.094;2023-11-21T09:25:37;99525.81;;;22.31;100.00
20793;BME280;10556;-33.662;151.094;2023-11-21T09:30:41;99526.56;;;22.23;100.00
20793;BME280;10556;-33.662;151.094;2023-11-21T09:35:43;99531.22;;;22.20;100.00
20793;BME280;10556;-33.662;151.094;2023-11-21T09:40:46;99546.94;;;22.18;100.00
20793;BME280;10556;-33.662;151.094;2023-11-21T09:45:56;99556.13;;;22.12;100.00
20793;BME280;10556;-33.662;151.094;2023-11-21T09:51:00;99563.81;;;22.04;100.00
20793;BME280;10556;-33.662;151.094;2023-11-21T09:56:03;99571.94;;;21.92;100.00
20793;BME280;10556;-33.662;151.094;2023-11-21T10:01:08;99573.56;;;21.83;100.00
20793;BME280;10556;-33.662;151.094;2023-11-21T10:06:13;99576.91;;;21.75;100.00
20793;BME280;10556;-33.662;151.094;2023-11-21T10:11:18;99585.38;;;21.68;100.00
20793;BME280;10556;-33.662;151.094;2023-11-21T10:16:26;99600.56;;;21.63;100.00
20793;BME280;10556;-33.662;151.094;2023-11-21T10:21:28;99595.25;;;21.55;100.00
20793;BME280;10556;-33.662;151.094;2023-11-21T10:26:33;99615.59;;;21.50;100.00
20793;BME280;10556;-33.662;151.094;2023-11-21T10:31:37;99624.31;;;21.49;100.00
20793;BME280;10556;-33.662;151.094;2023-11-21T10:36:40;99637.03;;;21.52;100.00
20793;BME280;10556;-33.662;151.094;2023-11-21T10:41:44;99635.25;;;21.52;100.00
20793;BME280;10556;-33.662;151.094;2023-11-21T10:46:49;99631.16;;;21.50;100.00
20793;BME280;10556;-33.662;151.094;2023-11-21T10:51:53;99636.22;;;21.42;100.00
20793;BME280;10556;-33.662;151.094;2023-11-21T10:56:58;99652.19;;;21.37;100.00
20793;BME280;10556;-33.662;151.094;2023-11-21T11:02:08;99649.88;;;21.34;100.00
20793;BME280;10556;-33.662;151.094;2023-11-21T11:07:15;99644.72;;;21.34;100.00
20793;BME280;10556;-33.662;151.094;2023-11-21T11:12:18;99644.00;;;21.32;100.00
20793;BME280;10556;-33.662;151.094;2023-11-21T11:17:22;99642.38;;;21.31;100.00
20793;BME280;10556;-33.662;151.094;2023-11-21T11:22:33;99647.28;;;21.34;100.00
20793;BME280;10556;-33.662;151.094;2023-11-21T11:27:47;99649.88;;;21.34;100.00
20793;BME280;10556;-33.662;151.094;2023-11-21T11:32:58;99651.66;;;21.34;100.00
20793;BME280;10556;-33.662;151.094;2023-11-21T11:38:03;99650.16;;;21.31;100.00
20793;BME280;10556;-33.662;151.094;2023-11-21T11:43:07;99654.09;;;21.25;100.00
20793;BME280;10556;-33.662;151.094;2023-11-21T11:48:12;99644.00;;;21.22;100.00
20793;BME280;10556;-33.662;151.094;2023-11-21T11:53:15;99630.34;;;21.20;100.00
20793;BME280;10556;-33.662;151.094;2023-11-21T11:58:17;99632.94;;;21.20;100.00
20793;BME280;10556;-33.662;151.094;2023-11-21T12:03:22;99631.88;;;21.23;100.00
20793;BME280;10556;-33.662;151.094;2023-11-21T12:08:24;99632.81;;;21.22;100.00
20793;BME280;10556;-33.662;151.094;2023-11-21T12:13:30;99632.69;;;21.23;100.00
20793;BME280;10556;-33.662;151.094;2023-11-21T12:18:34;99631.06;;;21.22;100.00
20793;BME280;10556;-33.662;151.094;2023-11-21T12:23:37;99612.22;;;21.20;100.00
20793;BME280;10556;-33.662;151.094;2023-11-21T12:28:40;99604.72;;;21.17;100.00
20793;BME280;10556;-33.662;151.094;2023-11-21T12:33:44;99601.59;;;21.14;100.00
20793;BME280;10556;-33.662;151.094;2023-11-21T12:38:46;99614.13;;;21.09;100.00
20793;BME280;10556;-33.662;151.094;2023-11-21T12:43:49;99603.59;;;21.01;100.00
20793;BME280;10556;-33.662;151.094;2023-11-21T12:48:53;99596.63;;;20.92;100.00
20793;BME280;10556;-33.662;151.094;2023-11-21T12:53:56;99582.59;;;20.84;100.00
20793;BME280;10556;-33.662;151.094;2023-11-21T12:58:59;99574.56;;;20.78;100.00
20793;BME280;10556;-33.662;151.094;2023-11-21T13:04:03;99575.25;;;20.70;100.00
20793;BME280;10556;-33.662;151.094;2023-11-21T13:09:10;99562.94;;;20.63;100.00
20793;BME280;10556;-33.662;151.094;2023-11-21T13:14:12;99565.94;;;20.58;100.00
20793;BME280;10556;-33.662;151.094;2023-11-21T13:19:16;99551.63;;;20.54;100.00
20793;BME280;10556;-33.662;151.094;2023-11-21T13:24:19;99548.63;;;20.49;100.00
20793;BME280;10556;-33.662;151.094;2023-11-21T13:29:21;99548.38;;;20.42;100.00
20793;BME280;10556;-33.662;151.094;2023-11-21T13:34:25;99548.78;;;20.38;100.00
20793;BME280;10556;-33.662;151.094;2023-11-21T13:39:28;99549.28;;;20.32;100.00
20793;BME280;10556;-33.662;151.094;2023-11-21T13:44:30;99554.84;;;20.27;100.00
20793;BME280;10556;-33.662;151.094;2023-11-21T13:49:35;99550.72;;;20.25;100.00
20793;BME280;10556;-33.662;151.094;2023-11-21T13:54:37;99551.81;;;20.22;100.00
20793;BME280;10556;-33.662;151.094;2023-11-21T13:59:39;99547.31;;;20.24;100.00
20793;BME280;10556;-33.662;151.094;2023-11-21T14:04:44;99547.19;;;20.26;100.00
20793;BME280;10556;-33.662;151.094;2023-11-21T14:09:46;99545.88;;;20.31;100.00
20793;BME280;10556;-33.662;151.094;2023-11-21T14:14:48;99555.00;;;20.35;100.00
20793;BME280;10556;-33.662;151.094;2023-11-21T14:19:53;99549.44;;;20.40;100.00
20793;BME280;10556;-33.662;151.094;2023-11-21T14:24:55;99545.50;;;20.45;100.00
20793;BME280;10556;-33.662;151.094;2023-11-21T14:29:58;99539.22;;;20.48;100.00
20793;BME280;10556;-33.662;151.094;2023-11-21T14:35:02;99532.16;;;20.50;100.00
20793;BME280;10556;-33.662;151.094;2023-11-21T14:40:05;99538.03;;;20.52;100.00
20793;BME280;10556;-33.662;151.094;2023-11-21T14:45:08;99538.69;;;20.54;100.00
20793;BME280;10556;-33.662;151.094;2023-11-21T14:50:13;99528.88;;;20.58;100.00
20793;BME280;10556;-33.662;151.094;2023-11-21T14:55:15;99531.19;;;20.61;100.00
20793;BME280;10556;-33.662;151.094;2023-11-21T15:00:18;99532.69;;;20.63;100.00
20793;BME280;10556;-33.662;151.094;2023-11-21T15:05:23;99523.97;;;20.64;100.00
20793;BME280;10556;-33.662;151.094;2023-11-21T15:10:25;99517.16;;;20.63;100.00
20793;BME280;10556;-33.662;151.094;2023-11-21T15:15:28;99515.66;;;20.61;100.00
20793;BME280;10556;-33.662;151.094;2023-11-21T15:20:32;99531.31;;;20.59;100.00
20793;BME280;10556;-33.662;151.094;2023-11-21T15:25:35;99532.97;;;20.60;100.00
20793;BME280;10556;-33.662;151.094;2023-11-21T15:30:37;99541.28;;;20.64;100.00
20793;BME280;10556;-33.662;151.094;2023-11-21T15:35:42;99542.22;;;20.63;100.00
20793;BME280;10556;-33.662;151.094;2023-11-21T15:40:44;99538.03;;;20.62;100.00
20793;BME280;10556;-33.662;151.094;2023-11-21T15:45:46;99532.16;;;20.60;100.00
20793;BME280;10556;-33.662;151.094;2023-11-21T15:50:51;99535.97;;;20.56;100.00
20793;BME280;10556;-33.662;151.094;2023-11-21T15:55:53;99540.84;;;20.49;100.00
20793;BME280;10556;-33.662;151.094;2023-11-21T16:00:56;99531.06;;;20.43;100.00
20793;BME280;10556;-33.662;151.094;2023-11-21T16:06:00;99523.66;;;20.38;100.00
20793;BME280;10556;-33.662;151.094;2023-11-21T16:11:02;99523.94;;;20.35;100.00
20793;BME280;10556;-33.662;151.094;2023-11-21T16:16:05;99528.19;;;20.36;100.00
20793;BME280;10556;-33.662;151.094;2023-11-21T16:21:12;99523.81;;;20.37;100.00
20793;BME280;10556;-33.662;151.094;2023-11-21T16:26:14;99522.31;;;20.34;100.00
20793;BME280;10556;-33.662;151.094;2023-11-21T16:31:22;99519.53;;;20.26;100.00
20793;BME280;10556;-33.662;151.094;2023-11-21T16:36:27;99519.41;;;20.18;100.00
20793;BME280;10556;-33.662;151.094;2023-11-21T16:41:29;99514.06;;;20.10;100.00
20793;BME280;10556;-33.662;151.094;2023-11-21T16:46:31;99514.72;;;20.02;100.00
20793;BME280;10556;-33.662;151.094;2023-11-21T16:51:36;99518.03;;;20.05;100.00
20793;BME280;10556;-33.662;151.094;2023-11-21T16:56:39;99519.09;;;20.02;100.00
20793;BME280;10556;-33.662;151.094;2023-11-21T17:01:42;99515.69;;;20.01;100.00
20793;BME280;10556;-33.662;151.094;2023-11-21T17:06:46;99512.41;;;19.99;100.00
20793;BME280;10556;-33.662;151.094;2023-11-21T17:11:49;99511.84;;;19.96;100.00
20793;BME280;10556;-33.662;151.094;2023-11-21T17:16:52;99517.69;;;19.88;100.00
20793;BME280;10556;-33.662;151.094;2023-11-21T17:21:56;99511.28;;;19.83;100.00
20793;BME280;10556;-33.662;151.094;2023-11-21T17:26:58;99521.47;;;19.75;100.00
20793;BME280;10556;-33.662;151.094;2023-11-21T17:32:01;99515.84;;;19.70;100.00
20793;BME280;10556;-33.662;151.094;2023-11-21T17:37:05;99533.66;;;19.63;100.00
20793;BME280;10556;-33.662;151.094;2023-11-21T17:42:08;99539.75;;;19.62;100.00
20793;BME280;10556;-33.662;151.094;2023-11-21T17:47:10;99538.16;;;19.61;100.00
20793;BME280;10556;-33.662;151.094;2023-11-21T17:52:15;99554.03;;;19.56;100.00
20793;BME280;10556;-33.662;151.094;2023-11-21T17:57:17;99558.63;;;19.53;100.00
20793;BME280;10556;-33.662;151.094;2023-11-21T18:02:19;99566.38;;;19.53;100.00
20793;BME280;10556;-33.662;151.094;2023-11-21T18:07:24;99563.94;;;19.51;100.00
20793;BME280;10556;-33.662;151.094;2023-11-21T18:12:27;99566.91;;;19.47;100.00
20793;BME280;10556;-33.662;151.094;2023-11-21T18:17:29;99583.50;;;19.44;100.00
20793;BME280;10556;-33.662;151.094;2023-11-21T18:22:33;99590.78;;;19.39;100.00
20793;BME280;10556;-33.662;151.094;2023-11-21T18:27:36;99593.47;;;19.38;100.00
20793;BME280;10556;-33.662;151.094;2023-11-21T18:32:38;99608.03;;;19.39;100.00
20793;BME280;10556;-33.662;151.094;2023-11-21T18:37:42;99612.53;;;19.37;100.00
20793;BME280;10556;-33.662;151.094;2023-11-21T18:42:45;99618.75;;;19.34;100.00
20793;BME280;10556;-33.662;151.094;2023-11-21T18:47:47;99627.34;;;19.35;100.00
20793;BME280;10556;-33.662;151.094;2023-11-21T18:52:51;99629.44;;;19.41;100.00
20793;BME280;10556;-33.662;151.094;2023-11-21T18:57:54;99618.84;;;19.44;100.00
20793;BME280;10556;-33.662;151.094;2023-11-21T19:02:56;99618.47;;;19.48;100.00
20793;BME280;10556;-33.662;151.094;2023-11-21T19:08:01;99624.09;;;19.53;100.00
20793;BME280;10556;-33.662;151.094;2023-11-21T19:13:03;99635.81;;;19.57;100.00
20793;BME280;10556;-33.662;151.094;2023-11-21T19:18:06;99644.38;;;19.58;100.00
20793;BME280;10556;-33.662;151.094;2023-11-21T19:23:10;99646.16;;;19.57;100.00
20793;BME280;10556;-33.662;151.094;2023-11-21T19:28:12;99629.69;;;19.58;100.00
20793;BME280;10556;-33.662;151.094;2023-11-21T19:33:15;99624.41;;;19.60;100.00
20793;BME280;10556;-33.662;151.094;2023-11-21T19:38:19;99623.75;;;19.68;100.00
20793;BME280;10556;-33.662;151.094;2023-11-21T19:43:21;99627.72;;;19.72;100.00
20793;BME280;10556;-33.662;151.094;2023-11-21T19:48:24;99625.72;;;19.75;100.00
20793;BME280;10556;-33.662;151.094;2023-11-21T19:53:28;99638.13;;;19.81;100.00
20793;BME280;10556;-33.662;151.094;2023-11-21T19:58:31;99641.03;;;19.88;100.00
20793;BME280;10556;-33.662;151.094;2023-11-21T20:03:33;99647.19;;;19.96;100.00
20793;BME280;10556;-33.662;151.094;2023-11-21T20:08:37;99651.75;;;20.04;100.00
20793;BME280;10556;-33.662;151.094;2023-11-21T20:13:40;99651.09;;;20.12;100.00
20793;BME280;10556;-33.662;151.094;2023-11-21T20:18:42;99656.41;;;20.20;100.00
20793;BME280;10556;-33.662;151.094;2023-11-21T20:23:46;99660.97;;;20.27;100.00
20793;BME280;10556;-33.662;151.094;2023-11-21T20:28:49;99661.03;;;20.37;100.00
20793;BME280;10556;-33.662;151.094;2023-11-21T20:33:52;99663.66;;;20.47;100.00
20793;BME280;10556;-33.662;151.094;2023-11-21T20:38:56;99681.94;;;20.55;100.00
20793;BME280;10556;-33.662;151.094;2023-11-21T20:43:58;99691.91;;;20.59;100.00
20793;BME280;10556;-33.662;151.094;2023-11-21T20:49:01;99689.84;;;20.63;100.00
20793;BME280;10556;-33.662;151.094;2023-11-21T20:54:05;99698.63;;;20.71;100.00
20793;BME280;10556;-33.662;151.094;2023-11-21T20:59:08;99706.25;;;20.82;100.00
20793;BME280;10556;-33.662;151.094;2023-11-21T21:04:10;99712.56;;;20.89;100.00
20793;BME280;10556;-33.662;151.094;2023-11-21T21:09:14;99719.00;;;20.95;100.00
20793;BME280;10556;-33.662;151.094;2023-11-21T21:14:17;99718.31;;;21.03;100.00
20793;BME280;10556;-33.662;151.094;2023-11-21T21:19:19;99723.41;;;21.14;100.00
20793;BME280;10556;-33.662;151.094;2023-11-21T21:24:24;99725.63;;;21.28;100.00
20793;BME280;10556;-33.662;151.094;2023-11-21T21:29:26;99739.25;;;21.40;100.00
20793;BME280;10556;-33.662;151.094;2023-11-21T21:34:28;99735.72;;;21.50;100.00
20793;BME280;10556;-33.662;151.094;2023-11-21T21:39:33;99747.03;;;21.59;100.00
20793;BME280;10556;-33.662;151.094;2023-11-21T21:44:35;99759.06;;;21.69;100.00
20793;BME280;10556;-33.662;151.094;2023-11-21T21:49:37;99765.47;;;21.75;100.00
20793;BME280;10556;-33.662;151.094;2023-11-21T21:54:42;99769.19;;;21.82;100.00
20793;BME280;10556;-33.662;151.094;2023-11-21T21:59:44;99769.28;;;21.90;100.00
20793;BME280;10556;-33.662;151.094;2023-11-21T22:04:47;99772.03;;;21.98;100.00
20793;BME280;10556;-33.662;151.094;2023-11-21T22:09:51;99783.53;;;22.05;100.00
20793;BME280;10556;-33.662;151.094;2023-11-21T22:14:54;99775.03;;;22.13;100.00
20793;BME280;10556;-33.662;151.094;2023-11-21T22:19:56;99789.53;;;22.15;100.00
20793;BME280;10556;-33.662;151.094;2023-11-21T22:25:00;99786.91;;;22.15;100.00
20793;BME280;10556;-33.662;151.094;2023-11-21T22:30:03;99782.38;;;22.17;100.00
20793;BME280;10556;-33.662;151.094;2023-11-21T22:35:07;99772.28;;;22.24;100.00
20793;BME280;10556;-33.662;151.094;2023-11-21T22:40:11;99777.72;;;22.31;100.00
20793;BME280;10556;-33.662;151.094;2023-11-21T22:45:14;99779.75;;;22.37;100.00
20793;BME280;10556;-33.662;151.094;2023-11-21T22:50:17;99782.75;;;22.42;100.00
20793;BME280;10556;-33.662;151.094;2023-11-21T22:55:21;99783.81;;;22.49;100.00
20793;BME280;10556;-33.662;151.094;2023-11-21T23:00:23;99791.84;;;22.55;100.00
20793;BME280;10556;-33.662;151.094;2023-11-21T23:05:26;99793.59;;;22.65;100.00
20793;BME280;10556;-33.662;151.094;2023-11-21T23:10:30;99796.06;;;22.76;100.00
20793;BME280;10556;-33.662;151.094;2023-11-21T23:15:33;99800.09;;;22.88;100.00
20793;BME280;10556;-33.662;151.094;2023-11-21T23:20:35;99802.25;;;23.02;100.00
20793;BME280;10556;-33.662;151.094;2023-11-21T23:25:39;99812.81;;;23.18;100.00
20793;BME280;10556;-33.662;151.094;2023-11-21T23:30:42;99821.25;;;23.30;100.00
20793;BME280;10556;-33.662;151.094;2023-11-21T23:35:45;99819.69;;;23.37;100.00
20793;BME280;10556;-33.662;151.094;2023-11-21T23:40:49;99818.38;;;23.51;100.00
20793;BME280;10556;-33.662;151.094;2023-11-21T23:45:51;99817.22;;;23.63;100.00
20793;BME280;10556;-33.662;151.094;2023-11-21T23:50:54;99820.94;;;23.78;100.00
20793;BME280;10556;-33.662;151.094;2023-11-21T23:55:58;99826.06;;;23.87;100.00
